Tropical Cyclones
[Index]
Season 2020-2021 Tropical Cyclone MARIAN Track Map
Season 2020-2021 Summaries (Operational Data): [AU] [SIO] [SPAC] [SH]
<<- Previous TC | 2020-2021 Season | Next TC ->>

click for intensity scale information  Lat/long Grid: Show Hide

 Date Labels: Show Hide

Operational Tropical Cyclone Data

Name: MARIAN
Number: 2122

22 Feb 2021 18:00 UTC to 07 Mar 2021 18:00 UTC

    date/time    lat    long     hPa   cat  kts
2021-02-22 18   13.5   124.2    1010         15          
2021-02-23 00   15.6   123.4    1010         15          
2021-02-23 06   13.0   118.7    1007         20          
2021-02-23 12   13.0   117.4    1004         20          
2021-02-23 18   13.0   116.3    1002         20          
2021-02-24 00   12.5   115.0    1002         20          
2021-02-24 06   12.6   112.8    1001         20          
2021-02-24 12   12.5   111.1    1003         20          
2021-02-24 18   12.5   108.8    1002         20          
2021-02-25 00   12.7   106.9    1003         20          
2021-02-25 06   13.1   105.5    1003         20          
2021-02-25 12   13.5   104.3    1002         25          
2021-02-25 18   13.9   102.8    1003         25          
2021-02-26 00   14.2   100.4     999    1    40          
2021-02-26 06   14.5    98.5     993    1    45          
2021-02-26 12   14.6    97.0     978    2    55          
2021-02-26 18   14.6    96.0     985    2    55          
2021-02-27 00   14.8    95.0     982    2    55          
2021-02-27 06   15.3    94.1     980    2    55          
2021-02-27 12   15.9    93.3     976    2    60          
2021-02-27 18   16.3    92.7     972    3    65          
2021-02-28 00   16.8    92.1     965    3    75          
2021-02-28 06   17.1    91.7     957    3    85          
2021-02-28 12   17.5    91.2     948    4    90          
2021-02-28 18   17.7    90.9     956    3    85          
2021-03-01 00   17.9    90.3     960    3    80          
2021-03-01 06   18.0    89.9     963    3    80          
2021-03-01 12   18.2    89.7     966    3    75          
2021-03-01 18   18.4    89.5     961    3    80          
2021-03-02 00   18.5    89.5     964    3    80          
2021-03-02 06   18.6    89.6     964    3    80          
2021-03-02 12   18.7    89.8     956    3    80          
2021-03-02 18   18.8    90.3     968    3    75          
2021-03-03 00   18.9    90.9     969    3    70          
2021-03-03 06   19.0    91.3     975    2    55          
2021-03-03 12   19.4    92.1     983    2    55          
2021-03-03 18   19.9    92.7     989    1    45          
2021-03-04 00   20.5    93.2     992    1    40          
2021-03-04 06   21.1    93.6     990    1    40          
2021-03-04 12   21.6    94.0     990    1    40          
2021-03-04 18   22.4    94.5     993    1    40          
2021-03-05 00   23.1    94.6     991    1    40          
2021-03-05 06   24.0    95.1     994    1    35          
2021-03-05 12   24.5    95.3     993    1    35          
2021-03-05 18   25.1    95.7     995         30          
2021-03-06 00   25.8    95.9     995         30          
2021-03-06 06   26.3    96.5    1000         20          
2021-03-06 12   27.3    96.9    1004         20          
2021-03-06 18   28.2    97.2    1004         20          
2021-03-07 00   28.7    97.2    1004         20          
2021-03-07 06   28.9    96.7    1004         20          
2021-03-07 12   28.2    96.7    1004         20          
2021-03-07 18   28.2    96.9    1004         20          
Winds were reported as (or converted to) 10-min average.

Tropical cyclone tracks developed by Michael Bath using operational warnings and advisories and Google Maps.


Document: tropical_cyclone_marian.htm
Updated: 7 May 2021
[Australian Severe Weather index] [Copyright Notice] [Email Contacts] [Search This Site] [Privacy Policy]


Main Index Home Page Stock Weather Photos Extreme Storms Discussion Storm News and Storm Chasing Reports Tropical Cyclones / Hurricanes / Typhoons Weather Data and Links Wild Fires / Bushfires Weather Observation Techniques Weather Picture Catalogue Tornado Pictures and Reports Stock Video Footage and DVDs for sale